sensor_id;sensor_type;location;lat;lon;timestamp;pressure;altitude;pressure_sealevel;temperature
69785;BMP280;14177;51.520;6.764;2023-02-28T00:01:18;102857.88;;;0.24
69785;BMP280;14177;51.520;6.764;2023-02-28T00:03:45;102846.63;;;0.21
69785;BMP280;14177;51.520;6.764;2023-02-28T00:06:12;102853.34;;;0.19
69785;BMP280;14177;51.520;6.764;2023-02-28T00:08:39;102848.84;;;0.13
69785;BMP280;14177;51.520;6.764;2023-02-28T00:11:11;102851.31;;;0.12
69785;BMP280;14177;51.520;6.764;2023-02-28T00:13:42;102849.53;;;0.09
69785;BMP280;14177;51.520;6.764;2023-02-28T00:16:13;102858.81;;;0.07
69785;BMP280;14177;51.520;6.764;2023-02-28T00:18:41;102856.97;;;0.05
69785;BMP280;14177;51.520;6.764;2023-02-28T00:21:09;102857.78;;;0.04
69785;BMP280;14177;51.520;6.764;2023-02-28T00:23:36;102863.59;;;0.00
69785;BMP280;14177;51.520;6.764;2023-02-28T00:26:04;102867.78;;;-0.02
69785;BMP280;14177;51.520;6.764;2023-02-28T00:28:31;102861.63;;;-0.05
69785;BMP280;14177;51.520;6.764;2023-02-28T00:30:59;102865.75;;;-0.09
69785;BMP280;14177;51.520;6.764;2023-02-28T00:33:28;102862.25;;;-0.11
69785;BMP280;14177;51.520;6.764;2023-02-28T00:36:08;102867.22;;;-0.14
69785;BMP280;14177;51.520;6.764;2023-02-28T00:38:37;102863.72;;;-0.16
69785;BMP280;14177;51.520;6.764;2023-02-28T00:41:05;102870.44;;;-0.18
69785;BMP280;14177;51.520;6.764;2023-02-28T00:43:36;102868.69;;;-0.19
69785;BMP280;14177;51.520;6.764;2023-02-28T00:46:04;102868.63;;;-0.20
69785;BMP280;14177;51.520;6.764;2023-02-28T00:48:32;102866.88;;;-0.21
69785;BMP280;14177;51.520;6.764;2023-02-28T00:50:59;102866.72;;;-0.24
69785;BMP280;14177;51.520;6.764;2023-02-28T00:53:27;102870.91;;;-0.26
69785;BMP280;14177;51.520;6.764;2023-02-28T00:55:57;102867.41;;;-0.28
69785;BMP280;14177;51.520;6.764;2023-02-28T00:58:25;102874.06;;;-0.32
69785;BMP280;14177;51.520;6.764;2023-02-28T01:00:52;102869.63;;;-0.36
69785;BMP280;14177;51.520;6.764;2023-02-28T01:03:21;102878.94;;;-0.36
69785;BMP280;14177;51.520;6.764;2023-02-28T01:05:49;102877.88;;;-0.41
69785;BMP280;14177;51.520;6.764;2023-02-28T01:08:16;102879.50;;;-0.43
69785;BMP280;14177;51.520;6.764;2023-02-28T01:10:43;102873.44;;;-0.45
69785;BMP280;14177;51.520;6.764;2023-02-28T01:13:12;102873.34;;;-0.47
69785;BMP280;14177;51.520;6.764;2023-02-28T01:15:48;102886.13;;;-0.47
69785;BMP280;14177;51.520;6.764;2023-02-28T01:18:15;102889.56;;;-0.46
69785;BMP280;14177;51.520;6.764;2023-02-28T01:20:42;102886.94;;;-0.48
69785;BMP280;14177;51.520;6.764;2023-02-28T01:23:09;102887.72;;;-0.49
69785;BMP280;14177;51.520;6.764;2023-02-28T01:25:39;102882.63;;;-0.49
69785;BMP280;14177;51.520;6.764;2023-02-28T01:28:06;102886.94;;;-0.48
69785;BMP280;14177;51.520;6.764;2023-02-28T01:30:34;102881.91;;;-0.46
69785;BMP280;14177;51.520;6.764;2023-02-28T01:33:01;102880.22;;;-0.46
69785;BMP280;14177;51.520;6.764;2023-02-28T01:35:33;102879.50;;;-0.43
69785;BMP280;14177;51.520;6.764;2023-02-28T01:38:01;102875.19;;;-0.44
69785;BMP280;14177;51.520;6.764;2023-02-28T01:40:47;102873.59;;;-0.42
69785;BMP280;14177;51.520;6.764;2023-02-28T01:43:24;102873.59;;;-0.42
69785;BMP280;14177;51.520;6.764;2023-02-28T01:45:56;102865.97;;;-0.41
69785;BMP280;14177;51.520;6.764;2023-02-28T01:51:22;102871.75;;;-0.45
69785;BMP280;14177;51.520;6.764;2023-02-28T01:54:00;102869.13;;;-0.46
69785;BMP280;14177;51.520;6.764;2023-02-28T01:56:33;102861.25;;;-0.51
69785;BMP280;14177;51.520;6.764;2023-02-28T01:59:02;102858.56;;;-0.54
69785;BMP280;14177;51.520;6.764;2023-02-28T02:01:31;102867.81;;;-0.56
69785;BMP280;14177;51.520;6.764;2023-02-28T02:04:02;102860.00;;;-0.59
69785;BMP280;14177;51.520;6.764;2023-02-28T02:06:46;102856.47;;;-0.62
69785;BMP280;14177;51.520;6.764;2023-02-28T02:09:14;102855.44;;;-0.66
69785;BMP280;14177;51.520;6.764;2023-02-28T02:11:44;102852.72;;;-0.69
69785;BMP280;14177;51.520;6.764;2023-02-28T02:26:55;102843.44;;;-0.86
69785;BMP280;14177;51.520;6.764;2023-02-28T02:35:11;102835.19;;;-0.98
69785;BMP280;14177;51.520;6.764;2023-02-28T02:37:53;102840.97;;;-1.02
69785;BMP280;14177;51.520;6.764;2023-02-28T02:40:35;102835.63;;;-1.06
69785;BMP280;14177;51.520;6.764;2023-02-28T02:43:50;102835.41;;;-1.11
69785;BMP280;14177;51.520;6.764;2023-02-28T02:46:38;102836.97;;;-1.14
69785;BMP280;14177;51.520;6.764;2023-02-28T02:49:19;102829.88;;;-1.20
69785;BMP280;14177;51.520;6.764;2023-02-28T02:51:49;102834.81;;;-1.23
69785;BMP280;14177;51.520;6.764;2023-02-28T02:54:24;102843.13;;;-1.26
69785;BMP280;14177;51.520;6.764;2023-02-28T02:57:00;102836.28;;;-1.27
69785;BMP280;14177;51.520;6.764;2023-02-28T02:59:30;102840.44;;;-1.29
69785;BMP280;14177;51.520;6.764;2023-02-28T03:02:03;102849.81;;;-1.28
69785;BMP280;14177;51.520;6.764;2023-02-28T03:04:38;102849.78;;;-1.30
69785;BMP280;14177;51.520;6.764;2023-02-28T03:07:07;102839.47;;;-1.31
69785;BMP280;14177;51.520;6.764;2023-02-28T03:09:34;102840.22;;;-1.34
69785;BMP280;14177;51.520;6.764;2023-02-28T03:12:11;102843.56;;;-1.35
69785;BMP280;14177;51.520;6.764;2023-02-28T03:15:18;102839.97;;;-1.38
69785;BMP280;14177;51.520;6.764;2023-02-28T03:18:24;102837.28;;;-1.41
69785;BMP280;14177;51.520;6.764;2023-02-28T03:21:26;102838.88;;;-1.43
69785;BMP280;14177;51.520;6.764;2023-02-28T03:26:50;102847.91;;;-1.50
69785;BMP280;14177;51.520;6.764;2023-02-28T03:29:50;102841.78;;;-1.53
69785;BMP280;14177;51.520;6.764;2023-02-28T03:32:33;102839.09;;;-1.56
69785;BMP280;14177;51.520;6.764;2023-02-28T03:35:10;102839.91;;;-1.57
69785;BMP280;14177;51.520;6.764;2023-02-28T03:37:42;102836.28;;;-1.61
69785;BMP280;14177;51.520;6.764;2023-02-28T03:40:15;102841.34;;;-1.62
69785;BMP280;14177;51.520;6.764;2023-02-28T03:42:48;102845.38;;;-1.66
69785;BMP280;14177;51.520;6.764;2023-02-28T03:45:23;102852.97;;;-1.67
69785;BMP280;14177;51.520;6.764;2023-02-28T03:47:59;102847.63;;;-1.72
69785;BMP280;14177;51.520;6.764;2023-02-28T03:50:38;102854.31;;;-1.74
69785;BMP280;14177;51.520;6.764;2023-02-28T03:53:28;102855.06;;;-1.76
69785;BMP280;14177;51.520;6.764;2023-02-28T03:56:12;102860.00;;;-1.79
69785;BMP280;14177;51.520;6.764;2023-02-28T03:59:26;102847.09;;;-1.82
69785;BMP280;14177;51.520;6.764;2023-02-28T04:01:57;102846.94;;;-1.85
69785;BMP280;14177;51.520;6.764;2023-02-28T04:04:25;102845.97;;;-1.87
69785;BMP280;14177;51.520;6.764;2023-02-28T04:07:01;102855.22;;;-1.89
69785;BMP280;14177;51.520;6.764;2023-02-28T04:09:28;102839.78;;;-1.92
69785;BMP280;14177;51.520;6.764;2023-02-28T04:11:55;102843.13;;;-1.93
69785;BMP280;14177;51.520;6.764;2023-02-28T04:14:23;102837.88;;;-1.96
69785;BMP280;14177;51.520;6.764;2023-02-28T04:16:50;102845.44;;;-1.98
69785;BMP280;14177;51.520;6.764;2023-02-28T04:19:18;102845.28;;;-2.01
69785;BMP280;14177;51.520;6.764;2023-02-28T04:21:53;102854.59;;;-2.01
69785;BMP280;14177;51.520;6.764;2023-02-28T04:24:26;102844.25;;;-2.04
69785;BMP280;14177;51.520;6.764;2023-02-28T04:26:56;102851.81;;;-2.06
69785;BMP280;14177;51.520;6.764;2023-02-28T04:29:31;102860.25;;;-2.07
69785;BMP280;14177;51.520;6.764;2023-02-28T04:32:00;102860.97;;;-2.09
69785;BMP280;14177;51.520;6.764;2023-02-28T04:34:30;102854.03;;;-2.12
69785;BMP280;14177;51.520;6.764;2023-02-28T04:36:57;102869.22;;;-2.13
69785;BMP280;14177;51.520;6.764;2023-02-28T04:39:40;102855.53;;;-2.15
69785;BMP280;14177;51.520;6.764;2023-02-28T04:42:08;102864.78;;;-2.17
69785;BMP280;14177;51.520;6.764;2023-02-28T04:44:35;102868.94;;;-2.19
69785;BMP280;14177;51.520;6.764;2023-02-28T04:47:02;102868.78;;;-2.22
69785;BMP280;14177;51.520;6.764;2023-02-28T04:49:29;102866.06;;;-2.25
69785;BMP280;14177;51.520;6.764;2023-02-28T04:51:56;102865.13;;;-2.27
69785;BMP280;14177;51.520;6.764;2023-02-28T04:54:23;102870.19;;;-2.27
69785;BMP280;14177;51.520;6.764;2023-02-28T04:56:50;102873.53;;;-2.28
69785;BMP280;14177;51.520;6.764;2023-02-28T04:59:17;102870.91;;;-2.30
69785;BMP280;14177;51.520;6.764;2023-02-28T05:01:49;102870.84;;;-2.31
69785;BMP280;14177;51.520;6.764;2023-02-28T05:04:16;102869.94;;;-2.32
69785;BMP280;14177;51.520;6.764;2023-02-28T05:06:44;102874.19;;;-2.32
69785;BMP280;14177;51.520;6.764;2023-02-28T05:09:11;102872.44;;;-2.33
69785;BMP280;14177;51.520;6.764;2023-02-28T05:11:40;102879.97;;;-2.35
69785;BMP280;14177;51.520;6.764;2023-02-28T05:14:12;102878.16;;;-2.37
69785;BMP280;14177;51.520;6.764;2023-02-28T05:16:40;102886.56;;;-2.38
69785;BMP280;14177;51.520;6.764;2023-02-28T05:19:07;102879.72;;;-2.39
69785;BMP280;14177;51.520;6.764;2023-02-28T05:21:49;102883.06;;;-2.40
69785;BMP280;14177;51.520;6.764;2023-02-28T05:24:16;102881.31;;;-2.41
69785;BMP280;14177;51.520;6.764;2023-02-28T05:26:51;102875.16;;;-2.44
69785;BMP280;14177;51.520;6.764;2023-02-28T05:29:19;102876.84;;;-2.45
69785;BMP280;14177;51.520;6.764;2023-02-28T05:31:46;102892.03;;;-2.46
69785;BMP280;14177;51.520;6.764;2023-02-28T05:34:13;102889.41;;;-2.48
69785;BMP280;14177;51.520;6.764;2023-02-28T05:36:42;102885.97;;;-2.48
69785;BMP280;14177;51.520;6.764;2023-02-28T05:39:09;102886.78;;;-2.49
69785;BMP280;14177;51.520;6.764;2023-02-28T05:41:41;102891.00;;;-2.50
69785;BMP280;14177;51.520;6.764;2023-02-28T05:44:09;102884.94;;;-2.52
69785;BMP280;14177;51.520;6.764;2023-02-28T05:46:36;102894.34;;;-2.51
69785;BMP280;14177;51.520;6.764;2023-02-28T05:49:03;102896.88;;;-2.51
69785;BMP280;14177;51.520;6.764;2023-02-28T05:51:30;102901.97;;;-2.51
69785;BMP280;14177;51.520;6.764;2023-02-28T05:54:01;102902.94;;;-2.49
69785;BMP280;14177;51.520;6.764;2023-02-28T05:56:29;102903.81;;;-2.48
69785;BMP280;14177;51.520;6.764;2023-02-28T05:58:56;102902.94;;;-2.49
69785;BMP280;14177;51.520;6.764;2023-02-28T06:01:35;102901.97;;;-2.51
69785;BMP280;14177;51.520;6.764;2023-02-28T06:04:05;102901.09;;;-2.51
69785;BMP280;14177;51.520;6.764;2023-02-28T06:06:33;102903.56;;;-2.53
69785;BMP280;14177;51.520;6.764;2023-02-28T06:09:04;102904.34;;;-2.54
69785;BMP280;14177;51.520;6.764;2023-02-28T06:11:33;102896.72;;;-2.54
69785;BMP280;14177;51.520;6.764;2023-02-28T06:14:01;102906.84;;;-2.55
69785;BMP280;14177;51.520;6.764;2023-02-28T06:16:30;102910.25;;;-2.55
69785;BMP280;14177;51.520;6.764;2023-02-28T06:19:01;102910.16;;;-2.56
69785;BMP280;14177;51.520;6.764;2023-02-28T06:21:29;102917.72;;;-2.58
69785;BMP280;14177;51.520;6.764;2023-02-28T06:23:58;102919.56;;;-2.55
69785;BMP280;14177;51.520;6.764;2023-02-28T06:26:25;102922.09;;;-2.55
69785;BMP280;14177;51.520;6.764;2023-02-28T06:28:53;102915.41;;;-2.53
69785;BMP280;14177;51.520;6.764;2023-02-28T06:31:21;102918.84;;;-2.53
69785;BMP280;14177;51.520;6.764;2023-02-28T06:33:49;102925.69;;;-2.52
69785;BMP280;14177;51.520;6.764;2023-02-28T06:36:17;102929.09;;;-2.51
69785;BMP280;14177;51.520;6.764;2023-02-28T06:38:44;102933.66;;;-2.46
69785;BMP280;14177;51.520;6.764;2023-02-28T06:41:11;102929.69;;;-2.41
69785;BMP280;14177;51.520;6.764;2023-02-28T06:43:41;102930.09;;;-2.34
69785;BMP280;14177;51.520;6.764;2023-02-28T06:46:12;102935.63;;;-2.26
69785;BMP280;14177;51.520;6.764;2023-02-28T06:48:43;102938.16;;;-2.26
69785;BMP280;14177;51.520;6.764;2023-02-28T06:51:17;102937.38;;;-2.25
69785;BMP280;14177;51.520;6.764;2023-02-28T06:53:44;102938.97;;;-2.27
69785;BMP280;14177;51.520;6.764;2023-02-28T06:56:14;102945.88;;;-2.25
69785;BMP280;14177;51.520;6.764;2023-02-28T06:58:41;102943.25;;;-2.26
69785;BMP280;14177;51.520;6.764;2023-02-28T07:01:09;102939.03;;;-2.26
69785;BMP280;14177;51.520;6.764;2023-02-28T07:03:36;102944.13;;;-2.26
69785;BMP280;14177;51.520;6.764;2023-02-28T07:06:05;102941.69;;;-2.24
69785;BMP280;14177;51.520;6.764;2023-02-28T07:08:34;102946.03;;;-2.22
69785;BMP280;14177;51.520;6.764;2023-02-28T07:11:03;102946.28;;;-2.17
69785;BMP280;14177;51.520;6.764;2023-02-28T07:13:31;102946.72;;;-2.10
69785;BMP280;14177;51.520;6.764;2023-02-28T07:16:05;102951.97;;;-1.75
69785;BMP280;14177;51.520;6.764;2023-02-28T07:18:32;102943.97;;;-1.17
69785;BMP280;14177;51.520;6.764;2023-02-28T07:21:06;102944.53;;;-0.54
69785;BMP280;14177;51.520;6.764;2023-02-28T07:23:33;102956.53;;;0.02
69785;BMP280;14177;51.520;6.764;2023-02-28T07:26:00;102943.25;;;0.47
69785;BMP280;14177;51.520;6.764;2023-02-28T07:28:27;102951.06;;;0.89
69785;BMP280;14177;51.520;6.764;2023-02-28T07:30:54;102941.56;;;1.27
69785;BMP280;14177;51.520;6.764;2023-02-28T07:33:21;102949.84;;;1.63
69785;BMP280;14177;51.520;6.764;2023-02-28T07:35:51;102942.34;;;1.91
69785;BMP280;14177;51.520;6.764;2023-02-28T07:38:18;102943.50;;;2.21
69785;BMP280;14177;51.520;6.764;2023-02-28T07:40:45;102936.03;;;2.50
69785;BMP280;14177;51.520;6.764;2023-02-28T07:43:12;102939.44;;;2.74
69785;BMP280;14177;51.520;6.764;2023-02-28T07:45:39;102941.06;;;2.97
69785;BMP280;14177;51.520;6.764;2023-02-28T07:48:06;102939.19;;;3.16
69785;BMP280;14177;51.520;6.764;2023-02-28T07:50:36;102941.66;;;3.40
69785;BMP280;14177;51.520;6.764;2023-02-28T07:53:04;102944.09;;;3.61
69785;BMP280;14177;51.520;6.764;2023-02-28T07:55:31;102947.28;;;3.82
69785;BMP280;14177;51.520;6.764;2023-02-28T07:57:59;102942.78;;;4.03
69785;BMP280;14177;51.520;6.764;2023-02-28T08:00:26;102933.09;;;4.24
69785;BMP280;14177;51.520;6.764;2023-02-28T08:02:53;102935.41;;;4.45
69785;BMP280;14177;51.520;6.764;2023-02-28T08:05:20;102935.75;;;4.58
69785;BMP280;14177;51.520;6.764;2023-02-28T08:07:49;102936.91;;;4.68
69785;BMP280;14177;51.520;6.764;2023-02-28T08:10:16;102940.81;;;4.86
69785;BMP280;14177;51.520;6.764;2023-02-28T08:12:43;102943.13;;;5.08
69785;BMP280;14177;51.520;6.764;2023-02-28T08:15:10;102937.63;;;5.30
69785;BMP280;14177;51.520;6.764;2023-02-28T08:17:37;102941.56;;;5.50
69785;BMP280;14177;51.520;6.764;2023-02-28T08:20:05;102943.72;;;5.69
69785;BMP280;14177;51.520;6.764;2023-02-28T08:22:32;102936.31;;;5.84
69785;BMP280;14177;51.520;6.764;2023-02-28T08:24:59;102939.81;;;5.86
69785;BMP280;14177;51.520;6.764;2023-02-28T08:27:26;102932.41;;;6.00
69785;BMP280;14177;51.520;6.764;2023-02-28T08:29:53;102930.22;;;6.18
69785;BMP280;14177;51.520;6.764;2023-02-28T08:32:20;102937.44;;;6.34
69785;BMP280;14177;51.520;6.764;2023-02-28T08:34:56;102933.56;;;6.57
69785;BMP280;14177;51.520;6.764;2023-02-28T08:37:23;102940.00;;;6.79
69785;BMP280;14177;51.520;6.764;2023-02-28T08:39:50;102935.94;;;6.93
69785;BMP280;14177;51.520;6.764;2023-02-28T08:42:22;102941.41;;;7.09
69785;BMP280;14177;51.520;6.764;2023-02-28T08:44:49;102937.34;;;7.24
69785;BMP280;14177;51.520;6.764;2023-02-28T08:47:16;102935.97;;;7.46
69785;BMP280;14177;51.520;6.764;2023-02-28T08:49:43;102929.34;;;7.63
69785;BMP280;14177;51.520;6.764;2023-02-28T08:52:10;102921.75;;;7.75
69785;BMP280;14177;51.520;6.764;2023-02-28T08:54:37;102928.00;;;7.89
69785;BMP280;14177;51.520;6.764;2023-02-28T08:57:04;102923.06;;;8.08
69785;BMP280;14177;51.520;6.764;2023-02-28T08:59:31;102916.44;;;8.30
69785;BMP280;14177;51.520;6.764;2023-02-28T09:01:59;102930.56;;;8.55
69785;BMP280;14177;51.520;6.764;2023-02-28T09:04:25;102916.78;;;8.61
69785;BMP280;14177;51.520;6.764;2023-02-28T09:06:52;102918.66;;;8.74
69785;BMP280;14177;51.520;6.764;2023-02-28T09:09:19;102911.84;;;8.85
69785;BMP280;14177;51.520;6.764;2023-02-28T09:11:46;102918.03;;;9.00
69785;BMP280;14177;51.520;6.764;2023-02-28T09:14:13;102909.56;;;9.21
69785;BMP280;14177;51.520;6.764;2023-02-28T09:16:40;102908.84;;;9.40
69785;BMP280;14177;51.520;6.764;2023-02-28T09:19:11;102902.91;;;9.59
69785;BMP280;14177;51.520;6.764;2023-02-28T09:21:39;102897.78;;;9.69
69785;BMP280;14177;51.520;6.764;2023-02-28T09:24:07;102891.81;;;9.89
69785;BMP280;14177;51.520;6.764;2023-02-28T09:26:34;102899.75;;;10.06
69785;BMP280;14177;51.520;6.764;2023-02-28T09:29:13;102896.19;;;9.95
69785;BMP280;14177;51.520;6.764;2023-02-28T09:31:41;102891.00;;;9.99
69785;BMP280;14177;51.520;6.764;2023-02-28T09:34:08;102885.88;;;10.01
69785;BMP280;14177;51.520;6.764;2023-02-28T09:36:35;102892.75;;;9.99
69785;BMP280;14177;51.520;6.764;2023-02-28T09:39:12;102897.03;;;9.88
69785;BMP280;14177;51.520;6.764;2023-02-28T09:41:48;102891.00;;;9.98
69785;BMP280;14177;51.520;6.764;2023-02-28T09:44:30;102891.81;;;9.89
69785;BMP280;14177;51.520;6.764;2023-02-28T09:47:13;102891.81;;;9.85
69785;BMP280;14177;51.520;6.764;2023-02-28T09:49:46;102893.47;;;9.74
69785;BMP280;14177;51.520;6.764;2023-02-28T09:52:20;102883.72;;;9.36
69785;BMP280;14177;51.520;6.764;2023-02-28T09:54:48;102882.53;;;8.93
69785;BMP280;14177;51.520;6.764;2023-02-28T09:57:36;102888.41;;;8.74
69785;BMP280;14177;51.520;6.764;2023-02-28T10:03:05;102898.81;;;8.77
69785;BMP280;14177;51.520;6.764;2023-02-28T10:06:04;102898.78;;;8.71
69785;BMP280;14177;51.520;6.764;2023-02-28T10:11:19;102906.63;;;8.08
69785;BMP280;14177;51.520;6.764;2023-02-28T10:16:35;102898.47;;;7.75
69785;BMP280;14177;51.520;6.764;2023-02-28T10:19:20;102889.00;;;7.77
69785;BMP280;14177;51.520;6.764;2023-02-28T10:21:59;102886.03;;;7.50
69785;BMP280;14177;51.520;6.764;2023-02-28T10:24:42;102901.16;;;7.24
69785;BMP280;14177;51.520;6.764;2023-02-28T10:27:15;102895.56;;;6.99
69785;BMP280;14177;51.520;6.764;2023-02-28T10:29:54;102886.19;;;7.04
69785;BMP280;14177;51.520;6.764;2023-02-28T10:32:30;102892.66;;;7.33
69785;BMP280;14177;51.520;6.764;2023-02-28T10:35:25;102883.81;;;7.77
69785;BMP280;14177;51.520;6.764;2023-02-28T10:37:59;102886.06;;;8.17
69785;BMP280;14177;51.520;6.764;2023-02-28T10:40:34;102889.63;;;8.25
69785;BMP280;14177;51.520;6.764;2023-02-28T10:43:21;102886.31;;;8.39
69785;BMP280;14177;51.520;6.764;2023-02-28T10:46:18;102889.47;;;8.16
69785;BMP280;14177;51.520;6.764;2023-02-28T10:49:06;102876.06;;;7.78
69785;BMP280;14177;51.520;6.764;2023-02-28T10:51:40;102879.78;;;7.36
69785;BMP280;14177;51.520;6.764;2023-02-28T10:54:35;102873.03;;;7.47
69785;BMP280;14177;51.520;6.764;2023-02-28T10:57:16;102876.38;;;7.40
69785;BMP280;14177;51.520;6.764;2023-02-28T10:59:43;102876.34;;;7.37
69785;BMP280;14177;51.520;6.764;2023-02-28T11:02:37;102864.66;;;7.63
69785;BMP280;14177;51.520;6.764;2023-02-28T11:05:34;102863.88;;;8.40
69785;BMP280;14177;51.520;6.764;2023-02-28T11:08:14;102862.31;;;8.55
69785;BMP280;14177;51.520;6.764;2023-02-28T11:10:58;102858.88;;;8.54
69785;BMP280;14177;51.520;6.764;2023-02-28T11:13:37;102867.41;;;8.46
69785;BMP280;14177;51.520;6.764;2023-02-28T11:16:11;102866.19;;;9.00
69785;BMP280;14177;51.520;6.764;2023-02-28T11:18:52;102854.38;;;9.47
69785;BMP280;14177;51.520;6.764;2023-02-28T11:21:30;102854.66;;;9.98
69785;BMP280;14177;51.520;6.764;2023-02-28T11:24:44;102858.22;;;10.15
69785;BMP280;14177;51.520;6.764;2023-02-28T11:30:00;102861.47;;;9.75
69785;BMP280;14177;51.520;6.764;2023-02-28T11:32:30;102860.66;;;9.89
69785;BMP280;14177;51.520;6.764;2023-02-28T11:37:41;102854.84;;;10.64
69785;BMP280;14177;51.520;6.764;2023-02-28T11:40:23;102859.19;;;10.69
69785;BMP280;14177;51.520;6.764;2023-02-28T11:43:07;102856.59;;;10.93
69785;BMP280;14177;51.520;6.764;2023-02-28T11:51:45;102848.81;;;10.86
69785;BMP280;14177;51.520;6.764;2023-02-28T12:00:52;102834.84;;;11.40
69785;BMP280;14177;51.520;6.764;2023-02-28T12:04:04;102824.44;;;11.43
69785;BMP280;14177;51.520;6.764;2023-02-28T12:07:12;102817.47;;;11.62
69785;BMP280;14177;51.520;6.764;2023-02-28T12:13:01;102804.34;;;11.84
69785;BMP280;14177;51.520;6.764;2023-02-28T12:21:31;102809.53;;;11.95
69785;BMP280;14177;51.520;6.764;2023-02-28T12:26:40;102799.09;;;11.93
69785;BMP280;14177;51.520;6.764;2023-02-28T12:29:29;102795.66;;;11.82
69785;BMP280;14177;51.520;6.764;2023-02-28T12:32:06;102781.91;;;11.55
69785;BMP280;14177;51.520;6.764;2023-02-28T12:34:44;102787.13;;;11.56
69785;BMP280;14177;51.520;6.764;2023-02-28T12:37:21;102791.44;;;11.60
69785;BMP280;14177;51.520;6.764;2023-02-28T12:39:59;102769.66;;;11.73
69785;BMP280;14177;51.520;6.764;2023-02-28T12:42:36;102771.34;;;11.86
69785;BMP280;14177;51.520;6.764;2023-02-28T12:45:12;102766.78;;;12.19
69785;BMP280;14177;51.520;6.764;2023-02-28T12:47:44;102776.31;;;12.23
69785;BMP280;14177;51.520;6.764;2023-02-28T12:50:14;102765.94;;;12.17
69785;BMP280;14177;51.520;6.764;2023-02-28T12:53:06;102759.88;;;12.17
69785;BMP280;14177;51.520;6.764;2023-02-28T12:55:48;102759.13;;;11.99
69785;BMP280;14177;51.520;6.764;2023-02-28T13:07:15;102728.41;;;12.42
69785;BMP280;14177;51.520;6.764;2023-02-28T13:10:06;102728.06;;;12.77
69785;BMP280;14177;51.520;6.764;2023-02-28T13:12:35;102732.25;;;12.97
69785;BMP280;14177;51.520;6.764;2023-02-28T13:15:20;102729.28;;;13.30
69785;BMP280;14177;51.520;6.764;2023-02-28T13:17:57;102726.44;;;13.46
69785;BMP280;14177;51.520;6.764;2023-02-28T13:20:48;102714.53;;;13.25
69785;BMP280;14177;51.520;6.764;2023-02-28T13:34:34;102704.47;;;12.89
69785;BMP280;14177;51.520;6.764;2023-02-28T13:39:57;102704.53;;;12.83
69785;BMP280;14177;51.520;6.764;2023-02-28T13:47:41;102699.28;;;12.84
69785;BMP280;14177;51.520;6.764;2023-02-28T13:53:34;102702.84;;;12.79
69785;BMP280;14177;51.520;6.764;2023-02-28T13:56:48;102697.56;;;12.85
69785;BMP280;14177;51.520;6.764;2023-02-28T14:03:26;102707.13;;;12.86
69785;BMP280;14177;51.520;6.764;2023-02-28T14:06:26;102698.69;;;12.60
69785;BMP280;14177;51.520;6.764;2023-02-28T14:09:05;102710.78;;;12.67
69785;BMP280;14177;51.520;6.764;2023-02-28T14:11:42;102707.34;;;12.66
69785;BMP280;14177;51.520;6.764;2023-02-28T14:17:15;102699.59;;;12.56
69785;BMP280;14177;51.520;6.764;2023-02-28T14:19:46;102696.06;;;12.60
69785;BMP280;14177;51.520;6.764;2023-02-28T14:22:54;102702.25;;;12.50
69785;BMP280;14177;51.520;6.764;2023-02-28T14:25:53;102700.56;;;12.43
69785;BMP280;14177;51.520;6.764;2023-02-28T14:29:02;102694.72;;;12.15
69785;BMP280;14177;51.520;6.764;2023-02-28T14:32:06;102687.88;;;12.01
69785;BMP280;14177;51.520;6.764;2023-02-28T14:34:55;102705.19;;;12.11
69785;BMP280;14177;51.520;6.764;2023-02-28T14:37:38;102702.69;;;11.96
69785;BMP280;14177;51.520;6.764;2023-02-28T14:40:23;102714.06;;;11.85
69785;BMP280;14177;51.520;6.764;2023-02-28T14:43:03;102704.59;;;11.72
69785;BMP280;14177;51.520;6.764;2023-02-28T14:45:33;102701.94;;;11.76
69785;BMP280;14177;51.520;6.764;2023-02-28T14:48:04;102699.31;;;11.81
69785;BMP280;14177;51.520;6.764;2023-02-28T14:50:37;102698.34;;;11.97
69785;BMP280;14177;51.520;6.764;2023-02-28T14:53:16;102683.50;;;12.06
69785;BMP280;14177;51.520;6.764;2023-02-28T14:55:47;102685.25;;;12.06
69785;BMP280;14177;51.520;6.764;2023-02-28T14:58:33;102680.88;;;12.09
69785;BMP280;14177;51.520;6.764;2023-02-28T15:01:03;102679.13;;;12.14
69785;BMP280;14177;51.520;6.764;2023-02-28T15:03:39;102670.56;;;11.94
69785;BMP280;14177;51.520;6.764;2023-02-28T15:06:15;102695.00;;;11.75
69785;BMP280;14177;51.520;6.764;2023-02-28T15:08:45;102702.03;;;11.63
69785;BMP280;14177;51.520;6.764;2023-02-28T15:11:18;102693.47;;;11.32
69785;BMP280;14177;51.520;6.764;2023-02-28T15:16:20;102684.97;;;10.88
69785;BMP280;14177;51.520;6.764;2023-02-28T15:18:56;102689.31;;;10.64
69785;BMP280;14177;51.520;6.764;2023-02-28T15:21:35;102687.59;;;10.57
69785;BMP280;14177;51.520;6.764;2023-02-28T15:24:17;102692.84;;;10.51
69785;BMP280;14177;51.520;6.764;2023-02-28T15:26:59;102704.09;;;10.43
69785;BMP280;14177;51.520;6.764;2023-02-28T15:29:31;102704.09;;;10.34
69785;BMP280;14177;51.520;6.764;2023-02-28T15:32:05;102693.69;;;10.34
69785;BMP280;14177;51.520;6.764;2023-02-28T15:34:40;102684.19;;;10.37
69785;BMP280;14177;51.520;6.764;2023-02-28T15:40:18;102689.38;;;10.16
69785;BMP280;14177;51.520;6.764;2023-02-28T15:43:18;102685.03;;;10.08
69785;BMP280;14177;51.520;6.764;2023-02-28T15:48:28;102680.69;;;10.22
69785;BMP280;14177;51.520;6.764;2023-02-28T15:51:17;102697.16;;;10.09
69785;BMP280;14177;51.520;6.764;2023-02-28T15:53:58;102694.50;;;9.88
69785;BMP280;14177;51.520;6.764;2023-02-28T15:56:29;102699.63;;;9.61
69785;BMP280;14177;51.520;6.764;2023-02-28T15:59:01;102693.50;;;9.47
69785;BMP280;14177;51.520;6.764;2023-02-28T16:01:32;102693.53;;;9.41
69785;BMP280;14177;51.520;6.764;2023-02-28T16:04:12;102692.63;;;9.35
69785;BMP280;14177;51.520;6.764;2023-02-28T16:06:42;102687.38;;;9.26
69785;BMP280;14177;51.520;6.764;2023-02-28T16:09:15;102689.97;;;9.18
69785;BMP280;14177;51.520;6.764;2023-02-28T16:11:50;102694.25;;;9.18
69785;BMP280;14177;51.520;6.764;2023-02-28T16:14:22;102697.69;;;9.14
69785;BMP280;14177;51.520;6.764;2023-02-28T16:16:54;102688.19;;;9.11
69785;BMP280;14177;51.520;6.764;2023-02-28T16:19:22;102691.63;;;9.03
69785;BMP280;14177;51.520;6.764;2023-02-28T16:21:50;102688.03;;;8.84
69785;BMP280;14177;51.520;6.764;2023-02-28T16:24:17;102691.41;;;8.65
69785;BMP280;14177;51.520;6.764;2023-02-28T16:26:50;102698.97;;;8.37
69785;BMP280;14177;51.520;6.764;2023-02-28T16:29:29;102698.78;;;8.18